sensor_id;sensor_type;location;lat;lon;timestamp;P1;durP1;ratioP1;P2;durP2;ratioP2
54406;SDS011;40313;50.308;30.374;2022-12-07T00:01:24;17.30;;;6.78;;
54406;SDS011;40313;50.308;30.374;2022-12-07T00:03:54;12.95;;;6.63;;
54406;SDS011;40313;50.308;30.374;2022-12-07T00:06:25;7.30;;;6.65;;
54406;SDS011;40313;50.308;30.374;2022-12-07T00:08:52;13.38;;;6.80;;
54406;SDS011;40313;50.308;30.374;2022-12-07T00:11:19;6.90;;;6.28;;
54406;SDS011;40313;50.308;30.374;2022-12-07T00:13:47;7.75;;;6.55;;
54406;SDS011;40313;50.308;30.374;2022-12-07T00:16:18;7.13;;;6.60;;
54406;SDS011;40313;50.308;30.374;2022-12-07T00:18:47;6.97;;;6.35;;
54406;SDS011;40313;50.308;30.374;2022-12-07T00:21:14;10.77;;;6.65;;
54406;SDS011;40313;50.308;30.374;2022-12-07T00:23:43;7.45;;;6.72;;
54406;SDS011;40313;50.308;30.374;2022-12-07T00:26:11;7.43;;;6.82;;
54406;SDS011;40313;50.308;30.374;2022-12-07T00:28:38;7.50;;;6.75;;
54406;SDS011;40313;50.308;30.374;2022-12-07T00:31:07;8.27;;;5.80;;
54406;SDS011;40313;50.308;30.374;2022-12-07T00:33:34;7.13;;;6.28;;
54406;SDS011;40313;50.308;30.374;2022-12-07T00:36:05;12.60;;;6.05;;
54406;SDS011;40313;50.308;30.374;2022-12-07T00:38:34;6.20;;;5.65;;
54406;SDS011;40313;50.308;30.374;2022-12-07T00:41:03;6.40;;;5.80;;
54406;SDS011;40313;50.308;30.374;2022-12-07T00:43:31;9.88;;;5.93;;
54406;SDS011;40313;50.308;30.374;2022-12-07T00:45:57;11.55;;;6.07;;
54406;SDS011;40313;50.308;30.374;2022-12-07T00:48:24;15.85;;;6.55;;
54406;SDS011;40313;50.308;30.374;2022-12-07T00:50:51;10.80;;;6.10;;
54406;SDS011;40313;50.308;30.374;2022-12-07T00:53:19;10.95;;;6.55;;
54406;SDS011;40313;50.308;30.374;2022-12-07T00:55:45;5.68;;;5.25;;
54406;SDS011;40313;50.308;30.374;2022-12-07T00:58:12;7.13;;;5.07;;
54406;SDS011;40313;50.308;30.374;2022-12-07T01:00:40;13.52;;;6.90;;
54406;SDS011;40313;50.308;30.374;2022-12-07T01:03:08;15.45;;;6.45;;
54406;SDS011;40313;50.308;30.374;2022-12-07T02:33:28;12.60;;;10.55;;
54406;SDS011;40313;50.308;30.374;2022-12-07T02:36:00;12.80;;;10.45;;
54406;SDS011;40313;50.308;30.374;2022-12-07T02:38:35;16.58;;;9.57;;
54406;SDS011;40313;50.308;30.374;2022-12-07T02:41:06;10.00;;;8.98;;
54406;SDS011;40313;50.308;30.374;2022-12-07T02:43:38;20.05;;;9.82;;
54406;SDS011;40313;50.308;30.374;2022-12-07T02:46:08;10.68;;;8.48;;
54406;SDS011;40313;50.308;30.374;2022-12-07T02:48:39;16.73;;;10.07;;
54406;SDS011;40313;50.308;30.374;2022-12-07T02:51:09;14.00;;;8.55;;
54406;SDS011;40313;50.308;30.374;2022-12-07T02:53:37;15.30;;;9.07;;
54406;SDS011;40313;50.308;30.374;2022-12-07T02:56:06;11.73;;;8.77;;
54406;SDS011;40313;50.308;30.374;2022-12-07T02:58:42;12.82;;;9.38;;
54406;SDS011;40313;50.308;30.374;2022-12-07T03:01:19;14.88;;;8.77;;
54406;SDS011;40313;50.308;30.374;2022-12-07T03:03:57;25.58;;;10.85;;
54406;SDS011;40313;50.308;30.374;2022-12-07T03:06:34;13.75;;;10.73;;
54406;SDS011;40313;50.308;30.374;2022-12-07T03:09:09;15.13;;;10.77;;
54406;SDS011;40313;50.308;30.374;2022-12-07T03:11:42;17.50;;;10.77;;
54406;SDS011;40313;50.308;30.374;2022-12-07T03:14:13;25.20;;;10.13;;
54406;SDS011;40313;50.308;30.374;2022-12-07T03:16:45;24.30;;;11.80;;
54406;SDS011;40313;50.308;30.374;2022-12-07T03:19:19;21.00;;;10.30;;
54406;SDS011;40313;50.308;30.374;2022-12-07T03:26:47;21.60;;;11.90;;
54406;SDS011;40313;50.308;30.374;2022-12-07T10:51:51;15.38;;;13.68;;
54406;SDS011;40313;50.308;30.374;2022-12-07T10:54:29;18.02;;;13.00;;
54406;SDS011;40313;50.308;30.374;2022-12-07T10:57:06;16.05;;;11.60;;
54406;SDS011;40313;50.308;30.374;2022-12-07T10:59:58;21.48;;;13.75;;
54406;SDS011;40313;50.308;30.374;2022-12-07T11:02:42;23.92;;;13.52;;
54406;SDS011;40313;50.308;30.374;2022-12-07T11:05:29;15.00;;;12.27;;
54406;SDS011;40313;50.308;30.374;2022-12-07T11:08:12;17.73;;;12.48;;
54406;SDS011;40313;50.308;30.374;2022-12-07T11:10:48;21.27;;;11.45;;
54406;SDS011;40313;50.308;30.374;2022-12-07T11:15:56;18.23;;;12.10;;
54406;SDS011;40313;50.308;30.374;2022-12-07T11:18:32;20.15;;;12.20;;
54406;SDS011;40313;50.308;30.374;2022-12-07T11:21:07;16.77;;;10.80;;
54406;SDS011;40313;50.308;30.374;2022-12-07T11:23:44;25.25;;;13.45;;
54406;SDS011;40313;50.308;30.374;2022-12-07T11:26:17;24.77;;;12.52;;
54406;SDS011;40313;50.308;30.374;2022-12-07T11:29:06;20.77;;;11.40;;
54406;SDS011;40313;50.308;30.374;2022-12-07T11:31:47;23.08;;;13.07;;
54406;SDS011;40313;50.308;30.374;2022-12-07T11:34:24;28.73;;;13.13;;
54406;SDS011;40313;50.308;30.374;2022-12-07T11:36:59;13.23;;;11.05;;
54406;SDS011;40313;50.308;30.374;2022-12-07T11:39:33;18.23;;;12.10;;
54406;SDS011;40313;50.308;30.374;2022-12-07T11:42:04;16.85;;;10.85;;
54406;SDS011;40313;50.308;30.374;2022-12-07T11:44:37;12.65;;;11.43;;
54406;SDS011;40313;50.308;30.374;2022-12-07T11:47:14;23.10;;;13.50;;
54406;SDS011;40313;50.308;30.374;2022-12-07T11:49:47;17.67;;;11.85;;
54406;SDS011;40313;50.308;30.374;2022-12-07T11:52:22;16.85;;;11.15;;
54406;SDS011;40313;50.308;30.374;2022-12-07T11:54:57;17.15;;;12.32;;
54406;SDS011;40313;50.308;30.374;2022-12-07T11:57:26;22.67;;;12.68;;
54406;SDS011;40313;50.308;30.374;2022-12-07T12:00:00;13.63;;;12.20;;
54406;SDS011;40313;50.308;30.374;2022-12-07T12:02:32;28.52;;;13.38;;
54406;SDS011;40313;50.308;30.374;2022-12-07T12:05:05;25.48;;;12.18;;
54406;SDS011;40313;50.308;30.374;2022-12-07T12:07:41;27.35;;;11.88;;
54406;SDS011;40313;50.308;30.374;2022-12-07T12:10:16;19.95;;;11.77;;
54406;SDS011;40313;50.308;30.374;2022-12-07T12:12:50;13.23;;;12.15;;
54406;SDS011;40313;50.308;30.374;2022-12-07T12:15:38;18.98;;;13.05;;
54406;SDS011;40313;50.308;30.374;2022-12-07T12:18:23;13.45;;;12.05;;
54406;SDS011;40313;50.308;30.374;2022-12-07T12:21:02;18.40;;;12.18;;
54406;SDS011;40313;50.308;30.374;2022-12-07T12:23:35;15.20;;;12.25;;
54406;SDS011;40313;50.308;30.374;2022-12-07T12:26:07;14.30;;;12.73;;
54406;SDS011;40313;50.308;30.374;2022-12-07T12:28:48;16.33;;;11.80;;
54406;SDS011;40313;50.308;30.374;2022-12-07T12:31:28;29.15;;;13.75;;
54406;SDS011;40313;50.308;30.374;2022-12-07T12:34:01;17.42;;;11.60;;
54406;SDS011;40313;50.308;30.374;2022-12-07T12:36:43;15.68;;;12.18;;
54406;SDS011;40313;50.308;30.374;2022-12-07T12:39:12;20.00;;;12.50;;
54406;SDS011;40313;50.308;30.374;2022-12-07T12:41:53;20.60;;;12.98;;
54406;SDS011;40313;50.308;30.374;2022-12-07T12:47:39;20.98;;;12.55;;
54406;SDS011;40313;50.308;30.374;2022-12-07T12:50:12;20.63;;;12.90;;
54406;SDS011;40313;50.308;30.374;2022-12-07T12:52:48;15.10;;;12.70;;
54406;SDS011;40313;50.308;30.374;2022-12-07T12:55:19;18.60;;;11.80;;
54406;SDS011;40313;50.308;30.374;2022-12-07T13:03:55;14.73;;;13.10;;
54406;SDS011;40313;50.308;30.374;2022-12-07T13:06:31;13.68;;;12.30;;
54406;SDS011;40313;50.308;30.374;2022-12-07T13:09:03;17.25;;;12.23;;
54406;SDS011;40313;50.308;30.374;2022-12-07T13:11:31;20.10;;;12.90;;
54406;SDS011;40313;50.308;30.374;2022-12-07T13:17:06;15.33;;;11.57;;
54406;SDS011;40313;50.308;30.374;2022-12-07T13:25:18;17.35;;;11.52;;
54406;SDS011;40313;50.308;30.374;2022-12-07T13:27:51;14.80;;;12.38;;
54406;SDS011;40313;50.308;30.374;2022-12-07T13:30:23;15.32;;;11.57;;
54406;SDS011;40313;50.308;30.374;2022-12-07T13:32:51;18.27;;;11.40;;
54406;SDS011;40313;50.308;30.374;2022-12-07T13:35:33;12.20;;;11.02;;
54406;SDS011;40313;50.308;30.374;2022-12-07T13:38:02;13.30;;;11.90;;
54406;SDS011;40313;50.308;30.374;2022-12-07T13:40:32;12.60;;;11.55;;
54406;SDS011;40313;50.308;30.374;2022-12-07T13:42:59;13.73;;;12.10;;
54406;SDS011;40313;50.308;30.374;2022-12-07T13:45:27;17.40;;;13.02;;
54406;SDS011;40313;50.308;30.374;2022-12-07T13:48:14;26.20;;;11.85;;
54406;SDS011;40313;50.308;30.374;2022-12-07T13:50:53;17.60;;;12.32;;
54406;SDS011;40313;50.308;30.374;2022-12-07T13:53:21;23.70;;;12.68;;
54406;SDS011;40313;50.308;30.374;2022-12-07T13:55:49;20.55;;;13.20;;
54406;SDS011;40313;50.308;30.374;2022-12-07T13:58:16;13.00;;;11.95;;
54406;SDS011;40313;50.308;30.374;2022-12-07T14:00:43;17.08;;;12.55;;
54406;SDS011;40313;50.308;30.374;2022-12-07T14:03:23;16.63;;;13.52;;
54406;SDS011;40313;50.308;30.374;2022-12-07T14:06:12;25.38;;;14.55;;
54406;SDS011;40313;50.308;30.374;2022-12-07T14:08:42;19.00;;;11.55;;
54406;SDS011;40313;50.308;30.374;2022-12-07T14:11:10;22.75;;;12.80;;
54406;SDS011;40313;50.308;30.374;2022-12-07T14:13:44;15.20;;;12.65;;
54406;SDS011;40313;50.308;30.374;2022-12-07T14:16:22;20.45;;;13.52;;
54406;SDS011;40313;50.308;30.374;2022-12-07T23:40:23;26.92;;;12.07;;
